Time;durP1;ratioP1;P1;durP2;ratioP2;P2;SDS_P1;SDS_P2;PMS_P1;PMS_P2;Temp;Humidity;BMP_temperature;BMP_pressure;BME280_temperature;BME280_humidity;BME280_pressure;Samples;Min_cycle;Max_cycle;Signal;HPM_P1;HPM_P2
2023/08/15 00:00:22;;;;;;;;;;;;;;;21.83;31.35;98050.38;4920320;29;1078;-75
2023/08/15 00:02:47;;;;;;;;;;;;;;;21.77;31.50;98040.84;4920248;29;1013;-75
2023/08/15 00:05:13;;;;;;;;;;;;;;;21.63;32.02;98054.56;4936049;29;929;-75
2023/08/15 00:07:57;;;;;;;;;;;;;;;21.83;31.79;98064.53;4943981;28;968;-75
2023/08/15 00:10:22;;;;;;;;;;;;;;;21.92;31.48;98061.06;4919910;29;1221;-75
2023/08/15 00:12:48;;;;;;;;;;;;;;;21.77;31.88;98063.50;4923224;29;1107;-76
2023/08/15 00:15:13;;;;;;;;;;;;;;;21.77;31.45;98068.38;4923680;29;1083;-75
2023/08/15 00:17:39;;;;;;;;;;;;;;;21.91;31.42;98084.16;4939268;29;1902;-76
2023/08/15 00:20:05;;;;;;;;;;;;;;;21.68;31.73;98093.66;4923646;29;1072;-75
2023/08/15 00:22:31;;;;;;;;;;;;;;;21.92;31.05;98085.78;4923734;29;1193;-75
2023/08/15 00:24:56;;;;;;;;;;;;;;;21.97;30.87;98099.41;4923177;29;949;-76
2023/08/15 00:27:22;;;;;;;;;;;;;;;21.92;30.90;98128.28;4923470;29;1053;-76
2023/08/15 00:29:47;;;;;;;;;;;;;;;22.07;30.51;98149.31;4938900;29;1065;-75
2023/08/15 00:32:13;;;;;;;;;;;;;;;21.78;30.94;98158.53;4939069;29;1218;-75
2023/08/15 00:34:38;;;;;;;;;;;;;;;21.81;30.61;98163.34;4939139;29;962;-76
2023/08/15 00:37:04;;;;;;;;;;;;;;;22.06;29.91;98181.72;4923219;29;1898;-76
2023/08/15 00:39:30;;;;;;;;;;;;;;;21.98;29.72;98186.00;4919491;29;1023;-76
2023/08/15 00:41:55;;;;;;;;;;;;;;;21.93;29.88;98178.03;4919930;29;1033;-76
2023/08/15 00:44:21;;;;;;;;;;;;;;;21.94;29.83;98168.28;4919858;29;1245;-76
2023/08/15 00:46:47;;;;;;;;;;;;;;;21.62;30.21;98172.69;4922404;29;1009;-75
2023/08/15 00:49:12;;;;;;;;;;;;;;;21.96;29.53;98171.44;4957914;29;1112;-75
2023/08/15 00:51:38;;;;;;;;;;;;;;;21.93;29.40;98166.69;4941769;29;1180;-76
2023/08/15 00:54:04;;;;;;;;;;;;;;;21.91;29.16;98169.16;4941664;29;1117;-75
2023/08/15 00:56:30;;;;;;;;;;;;;;;21.89;29.25;98155.44;4958053;29;1963;-75
2023/08/15 00:58:56;;;;;;;;;;;;;;;21.80;29.30;98153.22;4957825;29;993;-75
2023/08/15 01:01:24;;;;;;;;;;;;;;;22.12;29.11;98156.50;4900582;29;1057;-76
2023/08/15 01:03:51;;;;;;;;;;;;;;;22.04;28.90;98153.84;4900606;29;963;-75
2023/08/15 01:06:17;;;;;;;;;;;;;;;21.97;29.08;98150.41;4900700;29;1382;-75
2023/08/15 01:08:42;;;;;;;;;;;;;;;21.90;29.16;98150.56;4900478;29;1058;-76
2023/08/15 01:11:08;;;;;;;;;;;;;;;21.94;28.86;98156.94;4889179;29;1703;-76
2023/08/15 01:13:59;;;;;;;;;;;;;;;21.89;28.93;98155.44;4900200;29;1001;-76
2023/08/15 01:16:28;;;;;;;;;;;;;;;21.73;29.43;98147.75;4884750;29;1906;-76
2023/08/15 01:19:14;;;;;;;;;;;;;;;21.78;29.10;98133.06;4900039;29;1032;-77
2023/08/15 01:21:41;;;;;;;;;;;;;;;21.77;28.94;98137.13;4844569;29;991;-75
2023/08/15 01:24:07;;;;;;;;;;;;;;;21.98;28.57;98115.16;4843663;29;1043;-76
2023/08/15 01:26:32;;;;;;;;;;;;;;;21.63;29.30;98097.03;4844358;29;1134;-76
2023/08/15 01:28:58;;;;;;;;;;;;;;;22.06;28.71;98074.84;4844325;29;1129;-75
2023/08/15 01:31:26;;;;;;;;;;;;;;;21.92;28.82;98088.63;4844274;29;1128;-75
2023/08/15 01:34:01;;;;;;;;;;;;;;;21.81;29.27;98095.34;4844179;29;1253;-76
2023/08/15 01:36:29;;;;;;;;;;;;;;;21.68;29.24;98085.97;4844465;29;1972;-75
2023/08/15 01:38:55;;;;;;;;;;;;;;;21.45;29.38;98077.66;4864481;29;1137;-75
2023/08/15 01:41:21;;;;;;;;;;;;;;;21.62;29.60;98067.94;4881254;29;1260;-75
2023/08/15 01:43:47;;;;;;;;;;;;;;;21.75;29.13;98071.63;4896686;29;1118;-75
2023/08/15 01:46:12;;;;;;;;;;;;;;;21.95;29.25;98082.84;4896416;29;1267;-76
2023/08/15 01:48:39;;;;;;;;;;;;;;;22.01;28.75;98095.22;4896607;29;1121;-76
2023/08/15 01:51:05;;;;;;;;;;;;;;;21.91;29.03;98126.66;4896651;29;1201;-75
2023/08/15 01:53:30;;;;;;;;;;;;;;;21.81;29.10;98143.50;4880941;29;1020;-75
2023/08/15 01:55:56;;;;;;;;;;;;;;;21.63;29.36;98131.81;4899620;29;936;-76
2023/08/15 01:58:21;;;;;;;;;;;;;;;21.82;29.25;98125.25;4896221;29;1907;-76
2023/08/15 02:00:48;;;;;;;;;;;;;;;21.67;29.38;98109.88;4937261;29;1161;-76
2023/08/15 02:03:13;;;;;;;;;;;;;;;21.81;29.12;98103.03;4921706;29;1033;-76
2023/08/15 02:05:40;;;;;;;;;;;;;;;21.50;29.63;98111.09;4905907;29;1306;-76
2023/08/15 02:08:06;;;;;;;;;;;;;;;21.54;29.38;98109.75;4905642;29;1140;-75
2023/08/15 02:10:31;;;;;;;;;;;;;;;21.83;28.96;98129.69;4902493;29;1707;-75
2023/08/15 02:12:57;;;;;;;;;;;;;;;21.56;29.21;98126.34;4902643;29;1028;-75
2023/08/15 02:15:23;;;;;;;;;;;;;;;21.58;29.32;98130.31;4861763;29;1364;-75
2023/08/15 02:17:48;;;;;;;;;;;;;;;21.54;29.28;98114.63;4861877;29;1903;-76
2023/08/15 02:20:14;;;;;;;;;;;;;;;21.56;29.08;98104.47;4846420;29;1424;-76
2023/08/15 02:22:39;;;;;;;;;;;;;;;21.68;28.79;98100.13;4861836;29;1581;-75
2023/08/15 02:25:05;;;;;;;;;;;;;;;21.82;28.60;98087.66;4862019;29;960;-75
2023/08/15 02:27:31;;;;;;;;;;;;;;;21.88;28.64;98079.41;4861805;29;1046;-76
2023/08/15 02:29:56;;;;;;;;;;;;;;;21.98;28.31;98061.31;4861709;29;1365;-76
2023/08/15 02:32:22;;;;;;;;;;;;;;;22.00;28.59;98067.34;4831187;29;1312;-77
2023/08/15 02:34:48;;;;;;;;;;;;;;;21.60;29.10;98073.22;4846012;29;965;-76
2023/08/15 02:37:13;;;;;;;;;;;;;;;21.88;29.10;98062.41;4846232;29;1907;-75
2023/08/15 02:39:39;;;;;;;;;;;;;;;21.64;29.40;98050.50;4846124;29;1129;-77
2023/08/15 02:42:04;;;;;;;;;;;;;;;21.74;29.25;98058.69;4873148;29;1051;-76
2023/08/15 02:44:31;;;;;;;;;;;;;;;21.46;29.75;98048.91;4883287;29;1310;-75
2023/08/15 02:46:57;;;;;;;;;;;;;;;21.59;29.61;98046.94;4883151;29;1215;-76
2023/08/15 02:49:22;;;;;;;;;;;;;;;20.99;29.63;97944.56;4883053;29;1471;-75
2023/08/15 02:51:48;;;;;;;;;;;;;;;21.47;29.92;98066.69;4903699;29;997;-76
2023/08/15 02:54:14;;;;;;;;;;;;;;;21.32;30.24;98072.69;4939755;29;1303;-76
2023/08/15 02:56:39;;;;;;;;;;;;;;;21.44;29.85;98067.56;4955543;29;1978;-75
2023/08/15 02:59:05;;;;;;;;;;;;;;;21.71;29.43;98064.44;4882765;29;952;-76
2023/08/15 03:01:32;;;;;;;;;;;;;;;21.46;29.92;98079.25;4867550;29;1227;-77
2023/08/15 03:03:58;;;;;;;;;;;;;;;21.64;29.57;98076.75;4898858;29;956;-74
2023/08/15 03:06:23;;;;;;;;;;;;;;;21.67;29.47;98087.22;4882976;29;943;-76
2023/08/15 03:08:49;;;;;;;;;;;;;;;21.62;29.80;98092.63;4898558;29;955;-76
2023/08/15 03:11:15;;;;;;;;;;;;;;;21.66;29.91;98079.97;4913813;29;1003;-76
2023/08/15 03:13:40;;;;;;;;;;;;;;;21.56;29.97;98081.03;4914487;29;1064;-76
2023/08/15 03:16:06;;;;;;;;;;;;;;;21.57;29.81;98077.75;4898555;29;1019;-75
2023/08/15 03:18:32;;;;;;;;;;;;;;;21.72;29.67;98077.41;4913955;29;1903;-75
2023/08/15 03:20:58;;;;;;;;;;;;;;;21.84;29.56;98074.63;4898616;29;1118;-75
2023/08/15 03:23:24;;;;;;;;;;;;;;;21.67;30.03;98087.22;4914039;29;1308;-76
2023/08/15 03:25:59;;;;;;;;;;;;;;;21.72;30.07;98072.53;4930008;29;1257;-76
2023/08/15 03:28:28;;;;;;;;;;;;;;;21.69;30.05;98067.72;4929586;29;1260;-76
2023/08/15 03:30:54;;;;;;;;;;;;;;;21.77;30.06;98065.53;4979692;28;1271;-76
2023/08/15 03:33:20;;;;;;;;;;;;;;;21.82;29.86;98059.31;4972698;28;922;-75
2023/08/15 03:35:48;;;;;;;;;;;;;;;21.70;30.26;98060.81;4940643;29;1129;-75
2023/08/15 03:38:18;;;;;;;;;;;;;;;21.79;29.96;98069.50;4956338;29;1973;-76
2023/08/15 03:40:44;;;;;;;;;;;;;;;21.64;30.35;98076.75;4940427;29;1109;-75
2023/08/15 03:43:10;;;;;;;;;;;;;;;21.71;30.43;98076.59;4924522;29;1140;-75
2023/08/15 03:45:36;;;;;;;;;;;;;;;21.74;30.18;98074.91;4940647;29;1083;-76
2023/08/15 03:48:01;;;;;;;;;;;;;;;21.91;29.73;98101.16;4908107;29;1062;-75
2023/08/15 03:50:31;;;;;;;;;;;;;;;21.75;29.90;98111.25;4924233;29;1095;-76
2023/08/15 03:52:57;;;;;;;;;;;;;;;21.96;29.55;98129.75;4908192;29;1270;-75
2023/08/15 03:55:23;;;;;;;;;;;;;;;21.77;29.66;98131.47;4908136;29;1308;-76
2023/08/15 03:57:49;;;;;;;;;;;;;;;21.72;29.74;98134.81;4901418;29;1986;-75
2023/08/15 04:00:18;;;;;;;;;;;;;;;21.79;29.28;98122.50;4901456;29;1132;-75
2023/08/15 04:02:44;;;;;;;;;;;;;;;21.85;29.19;98110.19;4885810;29;1181;-76
2023/08/15 04:05:11;;;;;;;;;;;;;;;21.91;29.06;98095.50;4851808;29;1135;-75
2023/08/15 04:07:37;;;;;;;;;;;;;;;21.71;29.15;98076.59;4867429;29;1189;-75
2023/08/15 04:10:02;;;;;;;;;;;;;;;21.84;29.06;98073.81;4866912;29;1054;-76
2023/08/15 04:12:29;;;;;;;;;;;;;;;21.71;29.06;98070.13;4867337;29;1136;-76
2023/08/15 04:14:55;;;;;;;;;;;;;;;21.84;28.82;98057.63;4851962;29;1220;-76
2023/08/15 04:17:20;;;;;;;;;;;;;;;21.74;28.90;98058.69;4851564;29;1908;-75
2023/08/15 04:19:46;;;;;;;;;;;;;;;21.38;29.49;98053.16;4867036;29;1307;-75
2023/08/15 04:22:13;;;;;;;;;;;;;;;21.64;29.13;98076.75;4882428;29;1168;-75
2023/08/15 04:24:38;;;;;;;;;;;;;;;21.77;29.00;98076.84;4882295;29;961;-75
2023/08/15 04:27:05;;;;;;;;;;;;;;;21.82;28.72;98091.28;4866966;29;1373;-75
2023/08/15 04:29:31;;;;;;;;;;;;;;;21.69;29.19;98073.41;4867026;29;1110;-75
2023/08/15 04:31:56;;;;;;;;;;;;;;;21.74;28.78;98087.03;4866757;29;1138;-75
2023/08/15 04:34:22;;;;;;;;;;;;;;;21.52;29.17;98102.97;4872014;29;1300;-75
2023/08/15 04:36:48;;;;;;;;;;;;;;;21.90;28.70;98116.56;4934484;29;1906;-75
2023/08/15 04:39:15;;;;;;;;;;;;;;;21.77;28.84;98120.13;4943467;29;906;-76
2023/08/15 04:41:41;;;;;;;;;;;;;;;21.87;28.63;98145.81;4911384;29;1541;-76
2023/08/15 04:44:07;;;;;;;;;;;;;;;21.61;28.84;98156.94;4919249;29;1966;-75
2023/08/15 04:46:33;;;;;;;;;;;;;;;21.53;29.34;98178.16;4906902;29;1057;-76
2023/08/15 04:48:58;;;;;;;;;;;;;;;21.49;29.23;98183.91;4938447;29;957;-75
2023/08/15 04:51:24;;;;;;;;;;;;;;;21.55;29.08;98198.34;4938565;29;1048;-76
2023/08/15 04:53:49;;;;;;;;;;;;;;;21.58;29.16;98203.91;4938666;29;984;-76
2023/08/15 04:56:15;;;;;;;;;;;;;;;21.57;29.03;98207.19;4922395;29;1382;-75
2023/08/15 04:58:42;;;;;;;;;;;;;;;21.75;28.63;98196.22;4922583;29;1979;-76
2023/08/15 05:01:08;;;;;;;;;;;;;;;21.85;28.51;98183.84;4938612;29;1016;-76
2023/08/15 05:03:33;;;;;;;;;;;;;;;21.87;28.82;98179.81;4922317;29;1459;-76
2023/08/15 05:05:59;;;;;;;;;;;;;;;21.79;28.87;98157.28;4922177;29;1078;-75
2023/08/15 05:08:25;;;;;;;;;;;;;;;21.60;28.97;98149.66;4922484;29;1477;-76
2023/08/15 05:10:51;;;;;;;;;;;;;;;21.89;28.70;98148.97;4906614;29;1152;-75
2023/08/15 05:13:18;;;;;;;;;;;;;;;21.56;29.02;98135.63;4919043;29;983;-76
2023/08/15 05:15:44;;;;;;;;;;;;;;;21.66;29.16;98142.25;4918203;29;980;-75
2023/08/15 05:18:10;;;;;;;;;;;;;;;21.79;29.15;98140.31;4922410;29;1980;-75
2023/08/15 05:20:35;;;;;;;;;;;;;;;21.95;28.91;98142.31;4906678;29;1236;-76
2023/08/15 05:23:03;;;;;;;;;;;;;;;21.57;29.10;98147.75;4953761;29;1078;-76
2023/08/15 05:25:29;;;;;;;;;;;;;;;21.48;29.61;98164.53;4959890;29;923;-76
2023/08/15 05:27:56;;;;;;;;;;;;;;;21.84;28.97;98182.25;4926752;29;1310;-75
2023/08/15 05:30:23;;;;;;;;;;;;;;;21.66;29.12;98176.25;4958325;29;1249;-75
2023/08/15 05:32:49;;;;;;;;;;;;;;;21.85;28.81;98172.50;4942458;29;1134;-77
2023/08/15 05:35:14;;;;;;;;;;;;;;;21.78;29.14;98155.72;4942108;29;881;-75
2023/08/15 05:37:41;;;;;;;;;;;;;;;21.36;29.85;98154.72;4942162;29;1976;-75
2023/08/15 05:40:07;;;;;;;;;;;;;;;21.71;29.33;98150.22;4942265;29;976;-75
2023/08/15 05:42:34;;;;;;;;;;;;;;;21.69;29.16;98141.38;4925795;29;1220;-76
2023/08/15 05:44:59;;;;;;;;;;;;;;;21.70;28.95;98142.94;4958104;29;1247;-75
2023/08/15 05:47:25;;;;;;;;;;;;;;;21.60;29.62;98132.69;4958083;28;1202;-76
2023/08/15 05:49:51;;;;;;;;;;;;;;;21.71;29.11;98144.56;4942065;29;937;-76
2023/08/15 05:52:16;;;;;;;;;;;;;;;21.76;29.38;98135.53;4942252;29;981;-76
2023/08/15 05:54:42;;;;;;;;;;;;;;;21.84;29.32;98134.09;4958620;29;1028;-76
2023/08/15 05:57:07;;;;;;;;;;;;;;;21.64;29.58;98139.06;4957858;29;1903;-75
2023/08/15 05:59:33;;;;;;;;;;;;;;;21.48;29.80;98136.22;4925702;29;1010;-76
2023/08/15 06:01:59;;;;;;;;;;;;;;;21.84;29.62;98128.44;4958822;29;1419;-76
2023/08/15 06:04:24;;;;;;;;;;;;;;;21.78;29.44;98130.22;4941853;29;936;-76
2023/08/15 06:06:50;;;;;;;;;;;;;;;21.73;29.46;98124.28;4959007;29;971;-75
2023/08/15 06:09:16;;;;;;;;;;;;;;;21.64;29.94;98124.91;4917388;29;1065;-76
2023/08/15 06:11:41;;;;;;;;;;;;;;;21.88;29.70;98136.06;4918204;29;959;-76
2023/08/15 06:14:07;;;;;;;;;;;;;;;21.75;29.74;98133.13;4918246;29;1346;-76
2023/08/15 06:16:32;;;;;;;;;;;;;;;21.70;29.74;98154.28;4912631;29;1032;-75
2023/08/15 06:18:58;;;;;;;;;;;;;;;21.67;29.73;98163.69;4902257;29;1915;-75
2023/08/15 06:21:23;;;;;;;;;;;;;;;21.55;30.07;98170.03;4917755;29;1031;-75
2023/08/15 06:23:49;;;;;;;;;;;;;;;21.67;29.76;98166.50;4917854;29;1001;-75
2023/08/15 06:26:14;;;;;;;;;;;;;;;21.50;30.17;98156.38;4917846;29;937;-75
2023/08/15 06:28:40;;;;;;;;;;;;;;;21.77;29.88;98162.63;4902306;29;952;-76
2023/08/15 06:31:06;;;;;;;;;;;;;;;21.74;29.84;98177.66;4917841;29;941;-76
2023/08/15 06:33:32;;;;;;;;;;;;;;;21.95;29.42;98186.88;4918073;29;1012;-75
2023/08/15 06:35:57;;;;;;;;;;;;;;;21.72;29.68;98202.78;4902085;29;1052;-75
2023/08/15 06:38:23;;;;;;;;;;;;;;;21.67;29.93;98217.47;4917484;29;1981;-75
2023/08/15 06:40:49;;;;;;;;;;;;;;;21.72;29.96;98199.16;4917814;29;1049;-76
2023/08/15 06:43:14;;;;;;;;;;;;;;;21.89;29.38;98182.97;4917774;29;972;-77
2023/08/15 06:45:40;;;;;;;;;;;;;;;21.62;29.91;98167.03;4915655;29;1068;-76
2023/08/15 06:48:06;;;;;;;;;;;;;;;21.52;30.12;98148.28;4937827;29;1190;-75
2023/08/15 06:50:32;;;;;;;;;;;;;;;21.70;30.04;98120.28;4937475;29;926;-77
2023/08/15 06:52:57;;;;;;;;;;;;;;;21.94;29.47;98103.13;4938018;29;972;-76
2023/08/15 06:55:23;;;;;;;;;;;;;;;21.69;29.71;98066.94;4905139;29;1084;-75
2023/08/15 06:57:49;;;;;;;;;;;;;;;21.67;29.75;98056.06;4937364;29;1938;-76
2023/08/15 07:00:15;;;;;;;;;;;;;;;21.62;30.42;98011.31;4905203;29;1034;-75
2023/08/15 07:02:41;;;;;;;;;;;;;;;22.08;29.84;98054.56;4944434;29;1472;-76
2023/08/15 07:05:10;;;;;;;;;;;;;;;21.93;29.96;98059.84;4921775;29;984;-75
2023/08/15 07:07:37;;;;;;;;;;;;;;;21.95;29.69;98073.53;4921511;29;1082;-75
2023/08/15 07:10:05;;;;;;;;;;;;;;;21.75;30.18;98071.63;4921911;29;1052;-75
2023/08/15 07:12:30;;;;;;;;;;;;;;;21.77;30.00;98091.81;4922461;29;882;-76
2023/08/15 07:14:56;;;;;;;;;;;;;;;21.54;30.36;98106.94;4917545;29;980;-76
2023/08/15 07:17:21;;;;;;;;;;;;;;;21.55;30.28;98110.56;4901544;29;1993;-76
2023/08/15 07:19:47;;;;;;;;;;;;;;;21.50;30.67;98108.25;4901556;29;1468;-76
2023/08/15 07:22:13;;;;;;;;;;;;;;;21.76;30.16;98098.72;4920131;29;972;-76
2023/08/15 07:24:38;;;;;;;;;;;;;;;21.71;30.30;98092.78;4905624;29;1033;-76
2023/08/15 07:27:04;;;;;;;;;;;;;;;21.79;30.22;98085.69;4921469;29;1201;-76
2023/08/15 07:29:29;;;;;;;;;;;;;;;21.98;29.91;98081.16;4921150;29;935;-77
2023/08/15 07:31:55;;;;;;;;;;;;;;;21.84;29.84;98074.63;4921402;29;1030;-76
2023/08/15 07:34:21;;;;;;;;;;;;;;;22.04;29.43;98082.19;4905254;29;1101;-76
2023/08/15 07:36:47;;;;;;;;;;;;;;;21.98;29.94;98098.16;4921359;29;1915;-76
2023/08/15 07:39:13;;;;;;;;;;;;;;;22.03;29.90;98091.94;4921084;29;1116;-77
2023/08/15 07:41:38;;;;;;;;;;;;;;;21.72;30.11;98106.50;4920999;29;964;-76
2023/08/15 07:44:04;;;;;;;;;;;;;;;21.79;30.41;98105.53;4920996;29;984;-76
2023/08/15 07:46:30;;;;;;;;;;;;;;;21.77;30.17;98103.13;4930847;29;1079;-76
2023/08/15 07:48:56;;;;;;;;;;;;;;;21.92;30.01;98108.44;4961029;29;879;-75
2023/08/15 07:51:22;;;;;;;;;;;;;;;21.58;30.47;98112.53;4944498;29;970;-76
2023/08/15 07:53:47;;;;;;;;;;;;;;;21.74;30.36;98131.53;4928387;29;1101;-76
2023/08/15 07:56:13;;;;;;;;;;;;;;;21.64;30.33;98156.06;4961147;29;893;-76
2023/08/15 07:58:38;;;;;;;;;;;;;;;21.88;30.17;98141.72;4944126;29;1972;-76
2023/08/15 08:01:04;;;;;;;;;;;;;;;21.93;30.08;98144.03;4961279;29;954;-76
2023/08/15 08:03:29;;;;;;;;;;;;;;;21.13;30.00;98042.41;4959826;29;1618;-77
2023/08/15 08:05:55;;;;;;;;;;;;;;;21.68;30.11;98158.81;4927893;29;926;-76
2023/08/15 08:08:21;;;;;;;;;;;;;;;22.06;29.77;98153.38;4961151;29;984;-76
2023/08/15 08:10:46;;;;;;;;;;;;;;;21.90;30.08;98145.69;4960888;29;1083;-75
2023/08/15 08:13:16;;;;;;;;;;;;;;;21.63;30.50;98137.47;4959978;29;957;-77
2023/08/15 08:15:42;;;;;;;;;;;;;;;21.77;30.35;98154.13;4960825;29;1075;-76
2023/08/15 08:18:07;;;;;;;;;;;;;;;21.67;30.36;98166.50;4901130;29;1970;-76
2023/08/15 08:20:33;;;;;;;;;;;;;;;22.10;29.73;98159.75;4901533;29;992;-77
2023/08/15 08:22:59;;;;;;;;;;;;;;;21.91;30.10;98138.78;4885670;29;1037;-76
2023/08/15 08:25:24;;;;;;;;;;;;;;;21.84;29.97;98136.94;4885925;29;1283;-76
2023/08/15 08:27:50;;;;;;;;;;;;;;;21.76;30.61;98129.88;4901158;29;1077;-76
2023/08/15 08:30:16;;;;;;;;;;;;;;;21.99;29.90;98099.75;4901435;29;1042;-76
2023/08/15 08:32:42;;;;;;;;;;;;;;;21.98;30.16;98095.31;4885045;29;1135;-77
2023/08/15 08:35:07;;;;;;;;;;;;;;;21.87;30.49;98083.50;4885557;29;1257;-76
2023/08/15 08:37:33;;;;;;;;;;;;;;;22.03;30.21;98060.78;4885385;29;1906;-76
2023/08/15 08:39:58;;;;;;;;;;;;;;;21.95;30.44;98062.22;4885360;29;895;-76
2023/08/15 08:42:24;;;;;;;;;;;;;;;21.98;30.75;98064.97;4900959;29;1070;-76
2023/08/15 08:44:50;;;;;;;;;;;;;;;21.76;30.97;98067.56;4863415;29;1001;-78
2023/08/15 08:47:18;;;;;;;;;;;;;;;22.14;30.54;98081.16;4848309;29;1020;-76
2023/08/15 08:49:43;;;;;;;;;;;;;;;21.83;30.47;98050.38;4890364;29;1101;-76
2023/08/15 08:52:09;;;;;;;;;;;;;;;22.10;30.61;98086.09;4919791;29;1445;-76
2023/08/15 08:54:35;;;;;;;;;;;;;;;22.22;30.25;98088.19;4935692;29;1066;-77
2023/08/15 08:57:01;;;;;;;;;;;;;;;22.12;30.55;98083.63;4919543;29;1977;-76
2023/08/15 08:59:26;;;;;;;;;;;;;;;21.99;30.61;98083.53;4919456;29;1017;-76
2023/08/15 09:01:52;;;;;;;;;;;;;;;21.88;30.92;98085.88;4935315;29;1243;-76
2023/08/15 09:04:19;;;;;;;;;;;;;;;21.67;31.22;98081.56;4935506;29;1180;-76
2023/08/15 09:06:44;;;;;;;;;;;;;;;22.02;30.91;98079.00;4903565;29;1130;-77
2023/08/15 09:09:10;;;;;;;;;;;;;;;22.00;30.80;98062.47;4903497;29;1044;-76
2023/08/15 09:11:36;;;;;;;;;;;;;;;21.96;31.07;98060.97;4903798;29;1122;-76
2023/08/15 09:14:04;;;;;;;;;;;;;;;21.90;31.57;98066.38;4903987;29;971;-76
2023/08/15 09:16:30;;;;;;;;;;;;;;;21.81;31.77;98064.19;4917156;29;1141;-76
2023/08/15 09:18:56;;;;;;;;;;;;;;;21.89;31.74;98052.66;4941647;29;1980;-77
2023/08/15 09:21:26;;;;;;;;;;;;;;;22.03;31.45;98057.94;4941356;29;983;-77
2023/08/15 09:23:51;;;;;;;;;;;;;;;22.14;31.54;98069.03;4941516;29;1125;-76
2023/08/15 09:26:17;;;;;;;;;;;;;;;21.99;31.80;98068.59;4941372;29;1028;-77
2023/08/15 09:28:43;;;;;;;;;;;;;;;22.08;31.63;98078.03;4925077;29;1726;-76
2023/08/15 09:31:10;;;;;;;;;;;;;;;21.84;32.07;98080.28;4941605;29;988;-76
2023/08/15 09:33:39;;;;;;;;;;;;;;;21.97;31.77;98077.53;4925369;29;1462;-76
2023/08/15 09:36:05;;;;;;;;;;;;;;;22.07;31.39;98081.28;4925542;29;1250;-77
2023/08/15 09:38:30;;;;;;;;;;;;;;;22.01;31.49;98083.09;4941307;29;1911;-76
2023/08/15 09:40:56;;;;;;;;;;;;;;;21.94;32.03;98077.63;4957605;29;1030;-76
2023/08/15 09:43:22;;;;;;;;;;;;;;;22.07;31.26;98064.28;4940748;29;1061;-77
2023/08/15 09:45:48;;;;;;;;;;;;;;;21.79;31.90;98057.38;4974095;28;1177;-76
2023/08/15 09:48:14;;;;;;;;;;;;;;;21.94;31.66;98054.97;4942434;29;1030;-77
2023/08/15 09:50:41;;;;;;;;;;;;;;;21.80;31.94;98062.59;4941894;29;976;-76
2023/08/15 09:53:07;;;;;;;;;;;;;;;21.98;31.89;98067.78;4942738;29;1072;-77
2023/08/15 09:55:33;;;;;;;;;;;;;;;22.01;31.62;98085.91;4942208;29;998;-76
2023/08/15 09:57:58;;;;;;;;;;;;;;;21.99;31.30;98092.03;4957247;29;1898;-76
2023/08/15 10:00:24;;;;;;;;;;;;;;;22.30;31.15;98095.28;4957529;29;946;-77
2023/08/15 10:02:53;;;;;;;;;;;;;;;22.27;30.85;98096.16;4959358;29;936;-76
2023/08/15 10:05:20;;;;;;;;;;;;;;;22.21;31.10;98103.63;4957867;29;1000;-76
2023/08/15 10:07:46;;;;;;;;;;;;;;;22.04;31.10;98093.53;4958030;29;929;-77
2023/08/15 10:10:13;;;;;;;;;;;;;;;22.39;30.45;98108.00;4957617;29;1018;-76
2023/08/15 10:12:40;;;;;;;;;;;;;;;22.06;30.79;98103.16;4925997;29;1115;-77
2023/08/15 10:15:06;;;;;;;;;;;;;;;22.22;30.58;98079.69;4941726;29;1005;-76
2023/08/15 10:17:32;;;;;;;;;;;;;;;22.18;30.66;98070.50;4960178;28;2072;-76
2023/08/15 10:20:01;;;;;;;;;;;;;;;22.07;30.73;98064.28;4992765;28;947;-76
2023/08/15 10:22:27;;;;;;;;;;;;;;;22.31;30.14;98079.06;4977731;28;1142;-76
2023/08/15 10:24:54;;;;;;;;;;;;;;;22.40;30.30;98053.69;4992795;28;1361;-77
2023/08/15 10:27:20;;;;;;;;;;;;;;;22.26;30.38;98054.88;4993026;28;1006;-76
2023/08/15 10:29:58;;;;;;;;;;;;;;;22.15;30.31;98048.72;4944575;28;1500;-77
2023/08/15 10:32:25;;;;;;;;;;;;;;;22.05;30.66;98061.13;4960687;28;1120;-76
2023/08/15 10:34:54;;;;;;;;;;;;;;;21.96;30.90;98058.91;4956189;29;1140;-76
2023/08/15 10:37:26;;;;;;;;;;;;;;;21.83;30.94;98070.19;4955905;29;1967;-76
2023/08/15 10:40:08;;;;;;;;;;;;;;;22.05;30.80;98092.28;4940131;29;1089;-77
2023/08/15 10:42:53;;;;;;;;;;;;;;;22.02;30.47;98101.66;4955938;29;1122;-76
2023/08/15 10:45:19;;;;;;;;;;;;;;;21.93;30.63;98087.38;4953418;29;1273;-76
2023/08/15 10:47:45;;;;;;;;;;;;;;;22.13;30.38;98096.56;4936921;29;978;-77
2023/08/15 10:50:11;;;;;;;;;;;;;;;22.11;30.60;98099.03;4936953;29;976;-76
2023/08/15 10:52:39;;;;;;;;;;;;;;;21.93;30.74;98098.69;4936551;29;1128;-75
2023/08/15 10:55:06;;;;;;;;;;;;;;;22.24;30.05;98111.22;4936901;29;1058;-76
2023/08/15 10:57:32;;;;;;;;;;;;;;;21.95;30.75;98102.66;4936921;29;1915;-75
2023/08/15 10:59:58;;;;;;;;;;;;;;;22.14;30.17;98114.38;4917665;29;1064;-75
2023/08/15 11:02:23;;;;;;;;;;;;;;;22.21;30.25;98134.00;4917909;29;1105;-77
2023/08/15 11:04:49;;;;;;;;;;;;;;;22.12;30.23;98111.94;4919117;29;1035;-77
2023/08/15 11:07:24;;;;;;;;;;;;;;;21.77;30.73;98105.19;4936786;29;1059;-77
2023/08/15 11:09:50;;;;;;;;;;;;;;;22.17;30.18;98083.06;4920522;29;1156;-76
2023/08/15 11:12:16;;;;;;;;;;;;;;;22.03;30.44;98060.78;4936727;29;1093;-75
2023/08/15 11:14:41;;;;;;;;;;;;;;;21.57;31.33;98031.66;4920391;29;978;-76
2023/08/15 11:17:07;;;;;;;;;;;;;;;22.00;30.53;97996.50;4936251;29;1984;-77
2023/08/15 11:19:33;;;;;;;;;;;;;;;22.11;30.51;97971.50;4920466;29;963;-76
2023/08/15 11:21:58;;;;;;;;;;;;;;;22.09;30.45;97920.16;4920817;29;927;-75
2023/08/15 11:24:29;;;;;;;;;;;;;;;22.11;30.44;97951.69;4936389;29;1047;-76
2023/08/15 11:26:57;;;;;;;;;;;;;;;22.16;30.31;97985.13;4920707;29;1124;-77
2023/08/15 11:29:22;;;;;;;;;;;;;;;22.19;30.36;98055.09;4920345;29;973;-77
2023/08/15 11:31:48;;;;;;;;;;;;;;;22.00;30.83;98087.16;4937909;29;1046;-76
2023/08/15 11:34:14;;;;;;;;;;;;;;;22.19;30.53;98094.78;4958127;29;993;-76
2023/08/15 11:36:40;;;;;;;;;;;;;;;22.16;30.58;98106.19;4940591;29;1255;-76
2023/08/15 11:39:05;;;;;;;;;;;;;;;22.30;30.03;98106.59;4940322;29;1958;-77
2023/08/15 11:41:31;;;;;;;;;;;;;;;22.08;30.77;98105.56;4954747;29;949;-76
2023/08/15 11:43:56;;;;;;;;;;;;;;;22.22;30.60;98099.53;4940493;29;1040;-76
2023/08/15 11:46:23;;;;;;;;;;;;;;;22.15;30.34;98079.91;4968850;28;1090;-76
2023/08/15 11:48:49;;;;;;;;;;;;;;;21.85;31.03;98079.03;4939266;29;957;-75
2023/08/15 11:51:23;;;;;;;;;;;;;;;22.10;30.54;98089.75;4955284;29;1329;-76
2023/08/15 11:53:49;;;;;;;;;;;;;;;22.24;30.30;98097.06;4955269;29;931;-76
2023/08/15 11:56:15;;;;;;;;;;;;;;;22.00;30.64;98101.34;4955460;29;976;-76
2023/08/15 11:58:41;;;;;;;;;;;;;;;22.29;30.30;98110.69;4939133;29;1980;-76
2023/08/15 12:01:07;;;;;;;;;;;;;;;22.27;30.30;98106.69;4939366;29;937;-76
2023/08/15 12:03:33;;;;;;;;;;;;;;;22.17;30.26;98085.91;4954980;29;1016;-76
2023/08/15 12:05:59;;;;;;;;;;;;;;;22.09;30.48;98073.16;4955348;29;989;-76
2023/08/15 12:08:25;;;;;;;;;;;;;;;22.22;30.09;98065.53;4941798;29;1227;-77
2023/08/15 12:10:52;;;;;;;;;;;;;;;22.12;30.29;98040.31;4958914;29;933;-76
2023/08/15 12:13:17;;;;;;;;;;;;;;;22.07;30.11;98035.97;4943090;29;954;-76
2023/08/15 12:15:43;;;;;;;;;;;;;;;21.97;30.42;98032.19;4942888;29;1012;-76
2023/08/15 12:18:09;;;;;;;;;;;;;;;21.95;30.71;98022.53;4942576;29;1970;-77
2023/08/15 12:20:34;;;;;;;;;;;;;;;22.03;30.39;98023.94;4958722;29;987;-76
2023/08/15 12:23:00;;;;;;;;;;;;;;;21.85;30.75;98019.56;4958648;29;1406;-77
2023/08/15 12:25:27;;;;;;;;;;;;;;;22.31;29.91;98026.00;4962076;28;1054;-76
2023/08/15 12:27:53;;;;;;;;;;;;;;;22.07;30.38;98018.97;4915226;28;1070;-76
2023/08/15 12:30:20;;;;;;;;;;;;;;;22.12;30.14;98026.16;4979807;28;952;-76
2023/08/15 12:32:45;;;;;;;;;;;;;;;22.28;29.95;98029.75;4978617;28;953;-76
2023/08/15 12:35:11;;;;;;;;;;;;;;;22.06;30.17;98023.03;4980430;28;954;-76
2023/08/15 12:37:37;;;;;;;;;;;;;;;22.15;30.28;98003.38;4980308;28;1919;-76
2023/08/15 12:40:02;;;;;;;;;;;;;;;22.32;30.21;98013.41;4979777;28;1029;-76
2023/08/15 12:42:28;;;;;;;;;;;;;;;22.03;30.45;97989.94;4962360;28;1030;-77
2023/08/15 12:44:54;;;;;;;;;;;;;;;22.08;30.31;97992.22;4962539;28;921;-77
2023/08/15 12:47:19;;;;;;;;;;;;;;;22.27;30.03;97971.44;4979929;28;1035;-76
2023/08/15 12:49:45;;;;;;;;;;;;;;;22.24;30.24;97966.69;4962731;28;932;-78
2023/08/15 12:52:11;;;;;;;;;;;;;;;22.20;30.22;97968.81;4979802;28;1268;-76
2023/08/15 12:54:38;;;;;;;;;;;;;;;22.09;30.37;97982.47;4962681;28;899;-77